Time;durP1;ratioP1;P1;durP2;ratioP2;P2;SDS_P1;SDS_P2;PMS_P1;PMS_P2;Temp;Humidity;BMP_temperature;BMP_pressure;BME280_temperature;BME280_humidity;BME280_pressure;Samples;Min_cycle;Max_cycle;Signal;HPM_P1;HPM_P2
2023/09/20 00:00:13;;;;;;;1.60;1.50;;;22.10;59.10;;;;;;5054669;28;20249;-86
2023/09/20 00:02:45;;;;;;;1.63;1.52;;;22.10;59.10;;;;;;5055817;28;20291;-86
2023/09/20 00:05:15;;;;;;;1.58;1.48;;;22.10;59.10;;;;;;5054507;28;20218;-86
2023/09/20 00:07:43;;;;;;;2.25;1.63;;;22.10;59.10;;;;;;5054493;28;20202;-86
2023/09/20 00:10:14;;;;;;;1.60;1.50;;;22.10;59.10;;;;;;5054514;28;20201;-86
2023/09/20 00:12:43;;;;;;;1.60;1.50;;;22.00;59.00;;;;;;5054604;28;20245;-86
2023/09/20 00:15:10;;;;;;;1.50;1.40;;;22.00;59.00;;;;;;5054210;28;20345;-86
2023/09/20 00:17:38;;;;;;;1.52;1.42;;;22.10;59.10;;;;;;5055078;28;20206;-86
2023/09/20 00:20:12;;;;;;;1.60;1.50;;;22.10;59.10;;;;;;5055189;28;20245;-86
2023/09/20 00:22:44;;;;;;;1.63;1.52;;;22.10;59.10;;;;;;5054338;28;20206;-86
2023/09/20 00:25:12;;;;;;;1.80;1.52;;;22.00;59.00;;;;;;5055005;28;20195;-86
2023/09/20 00:27:40;;;;;;;1.70;1.60;;;22.10;59.10;;;;;;5054697;28;20199;-86
2023/09/20 00:30:10;;;;;;;1.67;1.58;;;22.10;59.10;;;;;;5054233;28;20677;-85
2023/09/20 00:32:39;;;;;;;1.73;1.63;;;22.00;59.00;;;;;;5054415;28;20226;-86
2023/09/20 00:35:09;;;;;;;1.55;1.45;;;22.00;59.10;;;;;;5038155;28;20183;-86
2023/09/20 00:37:36;;;;;;;2.13;1.70;;;22.00;59.10;;;;;;5055268;28;20245;-86
2023/09/20 00:40:13;;;;;;;1.48;1.38;;;22.00;59.10;;;;;;5056671;28;20227;-86
2023/09/20 00:42:41;;;;;;;1.75;1.50;;;22.00;59.10;;;;;;5058078;28;20202;-86
2023/09/20 00:45:08;;;;;;;1.63;1.50;;;22.00;59.10;;;;;;5058452;28;20199;-86
2023/09/20 00:47:40;;;;;;;1.50;1.40;;;22.00;59.10;;;;;;5054990;28;20191;-86
2023/09/20 00:50:09;;;;;;;1.58;1.48;;;22.00;59.10;;;;;;5054729;28;20214;-86
2023/09/20 00:52:39;;;;;;;1.77;1.67;;;22.00;59.10;;;;;;5037900;28;20199;-86
2023/09/20 00:55:09;;;;;;;1.80;1.70;;;22.00;59.20;;;;;;5054246;28;20219;-86
2023/09/20 00:57:37;;;;;;;1.80;1.70;;;21.90;59.10;;;;;;5055097;28;20257;-86
2023/09/20 01:00:13;;;;;;;1.90;1.60;;;22.00;59.20;;;;;;5038471;28;20566;-86
2023/09/20 01:02:40;;;;;;;1.70;1.60;;;22.00;59.20;;;;;;5054669;28;20206;-86
2023/09/20 01:05:09;;;;;;;1.70;1.60;;;21.90;59.10;;;;;;5055670;28;20270;-86
2023/09/20 01:07:35;;;;;;;1.90;1.60;;;22.00;59.30;;;;;;5055106;28;20195;-86
2023/09/20 01:10:05;;;;;;;1.75;1.60;;;22.00;59.30;;;;;;5054417;28;20211;-86
2023/09/20 01:12:35;;;;;;;1.55;1.45;;;21.90;59.20;;;;;;5054441;28;20194;-86
2023/09/20 01:15:02;;;;;;;1.80;1.50;;;21.90;59.20;;;;;;5055011;28;20267;-86
2023/09/20 01:17:29;;;;;;;1.50;1.40;;;21.90;59.20;;;;;;5053703;28;20198;-86
2023/09/20 01:19:56;;;;;;;1.50;1.40;;;21.90;59.20;;;;;;5054738;28;20571;-86
2023/09/20 01:22:26;;;;;;;1.50;1.40;;;21.90;59.20;;;;;;5038038;28;20207;-86
2023/09/20 01:24:55;;;;;;;1.95;1.50;;;21.90;59.30;;;;;;5054443;28;20626;-86
2023/09/20 01:27:22;;;;;;;1.70;1.60;;;21.90;59.30;;;;;;5054816;28;20192;-86
2023/09/20 01:29:49;;;;;;;1.88;1.60;;;21.90;59.30;;;;;;5055025;28;20190;-86
2023/09/20 01:32:17;;;;;;;1.52;1.42;;;21.90;59.30;;;;;;5053283;28;20661;-86
2023/09/20 01:34:45;;;;;;;1.60;1.50;;;21.90;59.30;;;;;;5053125;28;20683;-86
2023/09/20 01:37:13;;;;;;;1.83;1.60;;;21.90;59.30;;;;;;5053349;28;20685;-86
2023/09/20 01:39:42;;;;;;;1.50;1.40;;;21.90;59.30;;;;;;5053929;28;20199;-86
2023/09/20 01:42:09;;;;;;;1.85;1.38;;;21.90;59.30;;;;;;5054429;28;20191;-86
2023/09/20 01:44:37;;;;;;;1.67;1.58;;;21.90;59.30;;;;;;5053072;28;20249;-86
2023/09/20 01:47:05;;;;;;;1.85;1.60;;;21.80;59.30;;;;;;5053279;28;20234;-86
2023/09/20 01:49:34;;;;;;;1.95;1.60;;;21.90;59.40;;;;;;5069387;28;20192;-86
2023/09/20 01:52:05;;;;;;;2.03;1.40;;;21.80;59.30;;;;;;5052696;28;20231;-86
2023/09/20 01:54:32;;;;;;;1.55;1.45;;;21.80;60.00;;;;;;5052735;28;20282;-86
2023/09/20 01:57:01;;;;;;;1.60;1.50;;;21.80;59.30;;;;;;5052746;28;20345;-86
2023/09/20 01:59:28;;;;;;;1.50;1.40;;;21.80;59.40;;;;;;5052655;28;20650;-86
2023/09/20 02:01:55;;;;;;;1.30;1.20;;;21.80;59.40;;;;;;5053437;28;20210;-86
2023/09/20 02:04:23;;;;;;;1.50;1.40;;;21.80;59.40;;;;;;5053000;28;20207;-86
2023/09/20 02:06:50;;;;;;;1.70;1.60;;;21.80;59.50;;;;;;5052511;28;20265;-86
2023/09/20 02:09:18;;;;;;;1.50;1.40;;;21.80;60.10;;;;;;5052413;28;20199;-86
2023/09/20 02:11:45;;;;;;;1.85;1.58;;;21.80;59.60;;;;;;5052811;28;20210;-86
2023/09/20 02:14:14;;;;;;;1.38;1.27;;;21.70;59.50;;;;;;5054388;28;20201;-86
2023/09/20 02:16:41;;;;;;;1.63;1.52;;;21.80;59.60;;;;;;5053246;22;20238;-80
2023/09/20 02:19:08;;;;;;;1.50;1.40;;;21.70;59.60;;;;;;5057668;28;20622;-80
2023/09/20 02:21:36;;;;;;;1.42;1.33;;;21.70;59.70;;;;;;5063500;28;20199;-80
2023/09/20 02:24:03;;;;;;;1.42;1.33;;;21.70;59.70;;;;;;5059376;28;20282;-80
2023/09/20 02:26:30;;;;;;;1.50;1.40;;;21.70;59.70;;;;;;5059444;28;20215;-80
2023/09/20 02:28:58;;;;;;;3.20;1.40;;;21.70;59.70;;;;;;5058945;28;20202;-80
2023/09/20 02:31:26;;;;;;;1.58;1.48;;;21.70;59.70;;;;;;5059224;28;20194;-80
2023/09/20 02:33:55;;;;;;;1.63;1.30;;;21.70;59.70;;;;;;5059304;28;20574;-80
2023/09/20 02:36:22;;;;;;;1.63;1.52;;;21.70;59.80;;;;;;5059011;28;20635;-80
2023/09/20 02:38:49;;;;;;;1.60;1.25;;;21.60;59.70;;;;;;5042715;28;20199;-80
2023/09/20 02:41:16;;;;;;;1.58;1.48;;;21.70;59.80;;;;;;5059394;28;20214;-80
2023/09/20 02:43:44;;;;;;;1.38;1.27;;;21.70;59.90;;;;;;5059254;28;20195;-80
2023/09/20 02:46:13;;;;;;;1.60;1.50;;;21.70;59.90;;;;;;5059239;28;20226;-80
2023/09/20 02:48:41;;;;;;;2.03;1.33;;;21.60;59.80;;;;;;5061177;28;20193;-80
2023/09/20 02:51:08;;;;;;;1.60;1.50;;;21.70;59.90;;;;;;5059617;28;20206;-80
2023/09/20 02:53:35;;;;;;;1.40;1.30;;;21.60;59.90;;;;;;5060823;28;20204;-80
2023/09/20 02:56:04;;;;;;;1.63;1.50;;;21.60;59.90;;;;;;5060558;28;20635;-80
2023/09/20 02:58:31;;;;;;;1.38;1.30;;;21.60;59.90;;;;;;5060084;28;20207;-80
2023/09/20 03:00:58;;;;;;;1.40;1.30;;;21.60;59.90;;;;;;5061585;28;20195;-80
2023/09/20 03:03:25;;;;;;;1.50;1.40;;;21.60;59.90;;;;;;5059092;28;20642;-80
2023/09/20 03:05:54;;;;;;;1.50;1.40;;;21.60;59.90;;;;;;5059400;28;20219;-80
2023/09/20 03:08:21;;;;;;;2.70;1.42;;;21.60;59.80;;;;;;5059059;28;20614;-80
2023/09/20 03:10:49;;;;;;;1.40;1.30;;;21.60;59.70;;;;;;5059047;28;20696;-80
2023/09/20 03:13:19;;;;;;;1.73;1.60;;;21.60;59.40;;;;;;5059067;28;20203;-80
2023/09/20 03:15:54;;;;;;;2.08;1.45;;;21.60;59.30;;;;;;5059118;28;20590;-80
2023/09/20 03:18:24;;;;;;;1.60;1.50;;;21.60;59.30;;;;;;5059219;28;20195;-80
2023/09/20 03:21:06;;;;;;;1.60;1.50;;;21.70;59.30;;;;;;5059300;28;20195;-80
2023/09/20 03:23:33;;;;;;;2.50;1.45;;;21.70;59.20;;;;;;5059967;28;20590;-80
2023/09/20 03:26:01;;;;;;;1.40;1.30;;;21.80;59.20;;;;;;5058816;28;20307;-80
2023/09/20 03:28:28;;;;;;;1.60;1.50;;;21.80;59.00;;;;;;5059335;28;20195;-80
2023/09/20 03:31:01;;;;;;;1.83;1.50;;;21.80;58.90;;;;;;5055729;28;20279;-80
2023/09/20 03:33:31;;;;;;;1.50;1.40;;;21.90;59.30;;;;;;5055493;28;20180;-80
2023/09/20 03:36:02;;;;;;;2.45;1.38;;;21.90;58.60;;;;;;5055376;28;20219;-80
2023/09/20 03:38:32;;;;;;;2.65;1.40;;;22.00;58.50;;;;;;5055485;28;20199;-80
2023/09/20 03:40:59;;;;;;;1.60;1.40;;;22.00;58.40;;;;;;5055389;28;20195;-80
2023/09/20 03:43:27;;;;;;;1.60;1.50;;;22.00;58.30;;;;;;5055232;28;20195;-80
2023/09/20 03:45:55;;;;;;;1.55;1.40;;;22.00;58.30;;;;;;5039100;28;20223;-80
2023/09/20 03:48:22;;;;;;;1.60;1.50;;;22.00;58.30;;;;;;5056266;28;20217;-80
2023/09/20 03:50:49;;;;;;;1.35;1.25;;;22.00;58.20;;;;;;5056363;28;20661;-80
2023/09/20 03:53:16;;;;;;;2.00;1.48;;;22.00;58.10;;;;;;5056217;28;20282;-80
2023/09/20 03:55:48;;;;;;;1.52;1.40;;;22.10;58.00;;;;;;5039704;28;20570;-80
2023/09/20 03:58:17;;;;;;;1.40;1.30;;;22.10;57.90;;;;;;5055475;28;20222;-81
2023/09/20 04:00:45;;;;;;;1.52;1.42;;;22.20;58.00;;;;;;5054926;28;20643;-81
2023/09/20 04:03:14;;;;;;;1.65;1.50;;;22.10;57.90;;;;;;5055403;28;20198;-81
2023/09/20 04:05:41;;;;;;;1.63;1.52;;;22.10;57.70;;;;;;5039105;28;20297;-81
2023/09/20 04:08:08;;;;;;;1.35;1.25;;;22.20;57.70;;;;;;5055485;28;20290;-81
2023/09/20 04:10:35;;;;;;;1.60;1.50;;;22.20;57.60;;;;;;5055793;28;20202;-80
2023/09/20 04:13:06;;;;;;;1.40;1.30;;;22.20;57.50;;;;;;5055405;28;20209;-80
2023/09/20 04:15:34;;;;;;;1.40;1.30;;;22.20;57.60;;;;;;5055059;28;20221;-80
2023/09/20 04:18:02;;;;;;;1.75;1.50;;;22.20;57.50;;;;;;5054946;28;20716;-80
2023/09/20 04:20:29;;;;;;;1.85;1.45;;;22.20;57.60;;;;;;5056223;28;20200;-80
2023/09/20 04:22:56;;;;;;;1.40;1.30;;;22.20;57.60;;;;;;5054814;28;20672;-80
2023/09/20 04:25:23;;;;;;;1.50;1.40;;;22.20;58.20;;;;;;5054984;28;20211;-81
2023/09/20 04:27:50;;;;;;;1.48;1.38;;;22.20;57.70;;;;;;5055232;28;20274;-81
2023/09/20 04:30:19;;;;;;;1.73;1.40;;;22.10;57.60;;;;;;5054960;28;20234;-81
2023/09/20 04:32:46;;;;;;;1.50;1.40;;;22.10;57.70;;;;;;5055549;28;20650;-80
2023/09/20 04:35:20;;;;;;;1.48;1.38;;;22.10;57.80;;;;;;5055368;28;20239;-80
2023/09/20 04:37:47;;;;;;;2.28;1.58;;;22.10;57.80;;;;;;5054484;28;20697;-78
2023/09/20 04:40:15;;;;;;;2.22;1.80;;;22.00;57.50;;;;;;5054149;28;20195;-79
2023/09/20 04:42:42;;;;;;;1.90;1.70;;;22.00;56.50;;;;;;5054122;28;20566;-79
2023/09/20 04:45:12;;;;;;;1.70;1.55;;;21.90;56.40;;;;;;5054230;28;20198;-79
2023/09/20 04:47:42;;;;;;;2.30;1.40;;;21.90;56.30;;;;;;5054897;28;20198;-79
2023/09/20 04:50:12;;;;;;;2.38;1.60;;;21.90;56.20;;;;;;5054367;28;20205;-80
2023/09/20 04:52:40;;;;;;;2.15;1.60;;;21.90;55.40;;;;;;5053791;28;20202;-79
2023/09/20 04:55:10;;;;;;;3.65;1.60;;;21.80;54.40;;;;;;5037416;28;20191;-79
2023/09/20 04:57:37;;;;;;;1.70;1.48;;;21.80;54.20;;;;;;5054565;28;20224;-79
2023/09/20 05:00:15;;;;;;;2.13;1.60;;;21.70;54.10;;;;;;5037666;28;20195;-80
2023/09/20 05:02:45;;;;;;;1.85;1.60;;;21.70;53.90;;;;;;5054286;28;20192;-79
2023/09/20 05:05:12;;;;;;;2.42;1.67;;;21.70;53.70;;;;;;5053998;28;20297;-79
2023/09/20 05:07:40;;;;;;;2.00;1.85;;;21.60;53.80;;;;;;5053697;28;20310;-79
2023/09/20 05:10:08;;;;;;;2.28;1.60;;;21.60;53.50;;;;;;5053468;28;20195;-79
2023/09/20 05:12:35;;;;;;;3.83;1.63;;;21.60;53.50;;;;;;5053862;28;20614;-79
2023/09/20 05:15:03;;;;;;;3.85;1.80;;;21.50;53.40;;;;;;5037328;28;20191;-80
2023/09/20 05:17:29;;;;;;;3.30;1.90;;;21.50;53.50;;;;;;5020755;28;20693;-79
2023/09/20 05:20:00;;;;;;;2.53;1.65;;;21.50;53.40;;;;;;5054323;28;20195;-79
2023/09/20 05:22:30;;;;;;;1.90;1.67;;;21.50;53.70;;;;;;5054385;28;20278;-79
2023/09/20 05:24:57;;;;;;;2.47;1.73;;;21.40;53.60;;;;;;5053680;28;20230;-79
2023/09/20 05:27:25;;;;;;;1.60;1.50;;;21.40;53.80;;;;;;5053763;28;20265;-82
2023/09/20 05:29:53;;;;;;;2.33;1.63;;;21.30;53.70;;;;;;5053670;28;20688;-82
2023/09/20 05:32:20;;;;;;;1.90;1.60;;;21.40;53.80;;;;;;5053387;28;20230;-81
2023/09/20 05:34:48;;;;;;;1.85;1.60;;;21.30;53.80;;;;;;5038572;28;20299;-81
2023/09/20 05:37:16;;;;;;;2.00;1.55;;;21.30;53.80;;;;;;5061823;28;20222;-80
2023/09/20 05:39:47;;;;;;;2.65;1.75;;;21.30;53.80;;;;;;5062338;28;20289;-80
2023/09/20 05:42:14;;;;;;;2.28;1.77;;;21.30;53.80;;;;;;5063238;28;20241;-82
2023/09/20 05:44:42;;;;;;;1.92;1.73;;;21.30;54.90;;;;;;5061451;28;20621;-82
2023/09/20 05:47:09;;;;;;;2.15;1.95;;;21.30;55.00;;;;;;5054147;28;20211;-82
2023/09/20 05:49:37;;;;;;;2.67;1.70;;;21.30;55.20;;;;;;5053233;28;20196;-82
2023/09/20 05:52:05;;;;;;;1.75;1.65;;;21.30;55.20;;;;;;5052798;28;20207;-82
2023/09/20 05:54:35;;;;;;;1.50;1.40;;;21.30;55.30;;;;;;5052340;28;20203;-82
2023/09/20 05:57:03;;;;;;;1.70;1.60;;;21.30;55.40;;;;;;5071930;28;20216;-82
2023/09/20 05:59:31;;;;;;;1.80;1.70;;;21.30;55.50;;;;;;5069047;28;20534;-82
2023/09/20 06:01:58;;;;;;;1.65;1.55;;;21.30;55.50;;;;;;5054855;28;20199;-82
2023/09/20 06:04:25;;;;;;;2.42;1.80;;;21.30;55.50;;;;;;5053282;28;20245;-82
2023/09/20 06:06:54;;;;;;;2.95;1.80;;;21.40;55.20;;;;;;5036441;28;20256;-82
2023/09/20 06:09:21;;;;;;;2.35;1.70;;;21.40;55.20;;;;;;5053048;28;20215;-82
2023/09/20 06:11:50;;;;;;;2.72;1.70;;;21.40;55.10;;;;;;5052769;28;20668;-82
2023/09/20 06:14:18;;;;;;;1.75;1.65;;;21.50;55.20;;;;;;5053332;28;20232;-82
2023/09/20 06:16:45;;;;;;;1.60;1.50;;;21.50;55.20;;;;;;5052597;28;20634;-82
2023/09/20 06:19:12;;;;;;;1.70;1.60;;;21.60;55.10;;;;;;5054202;28;20187;-82
2023/09/20 06:21:39;;;;;;;2.03;1.42;;;21.60;55.00;;;;;;5052597;28;20199;-82
2023/09/20 06:24:10;;;;;;;1.77;1.50;;;21.60;55.00;;;;;;5068147;22;20301;-77
2023/09/20 06:26:40;;;;;;;1.90;1.70;;;21.70;55.00;;;;;;5053297;28;20229;-78
2023/09/20 06:29:09;;;;;;;1.98;1.75;;;21.80;54.90;;;;;;5053746;28;20227;-78
2023/09/20 06:31:37;;;;;;;1.90;1.77;;;21.80;54.90;;;;;;5054731;28;20692;-79
2023/09/20 06:34:04;;;;;;;1.90;1.40;;;21.90;54.80;;;;;;5036701;28;20195;-80
2023/09/20 06:36:31;;;;;;;2.03;1.77;;;21.90;54.70;;;;;;5053379;28;20226;-79
2023/09/20 06:38:59;;;;;;;1.75;1.65;;;22.00;54.70;;;;;;5052762;28;20214;-79
2023/09/20 06:41:26;;;;;;;2.10;1.90;;;22.00;54.60;;;;;;5052598;28;20282;-79
2023/09/20 06:43:53;;;;;;;3.65;1.70;;;22.00;54.40;;;;;;5036354;28;20196;-79
2023/09/20 06:46:24;;;;;;;2.10;1.90;;;22.10;54.40;;;;;;5054354;28;20211;-79
2023/09/20 06:48:51;;;;;;;1.90;1.80;;;22.20;54.30;;;;;;5052792;28;20195;-79
2023/09/20 06:51:18;;;;;;;3.00;2.03;;;22.20;54.10;;;;;;5052808;28;20199;-79
2023/09/20 06:53:46;;;;;;;2.72;1.80;;;22.30;54.00;;;;;;5052550;28;20207;-79
2023/09/20 06:56:13;;;;;;;2.30;2.10;;;22.30;54.00;;;;;;5052251;28;20294;-78
2023/09/20 06:58:40;;;;;;;2.10;1.75;;;22.40;53.90;;;;;;5052710;28;20215;-78
2023/09/20 07:01:09;;;;;;;2.30;2.05;;;22.40;53.80;;;;;;5054550;28;20200;-78
2023/09/20 07:03:39;;;;;;;1.90;1.73;;;22.50;53.60;;;;;;5053062;28;20195;-78
2023/09/20 07:06:06;;;;;;;3.05;1.60;;;22.60;53.40;;;;;;5055845;28;20219;-78
2023/09/20 07:08:34;;;;;;;2.45;1.80;;;22.80;53.30;;;;;;5023694;28;20669;-78
2023/09/20 07:11:02;;;;;;;2.03;1.80;;;23.00;52.90;;;;;;5056206;28;20200;-78
2023/09/20 07:13:32;;;;;;;2.50;1.85;;;23.10;52.70;;;;;;5056167;28;20245;-78
2023/09/20 07:16:04;;;;;;;2.58;1.60;;;23.30;52.50;;;;;;5056216;28;20733;-78
2023/09/20 07:18:31;;;;;;;2.80;2.00;;;23.30;52.20;;;;;;5056514;28;20588;-78
2023/09/20 07:21:00;;;;;;;2.13;1.70;;;23.50;51.90;;;;;;5057010;28;20234;-78
2023/09/20 07:23:29;;;;;;;2.40;1.60;;;23.60;51.80;;;;;;5055694;28;20214;-78
2023/09/20 07:25:56;;;;;;;2.53;1.73;;;23.70;51.50;;;;;;5055844;28;20215;-78
2023/09/20 07:28:24;;;;;;;1.80;1.70;;;23.80;51.30;;;;;;5056099;28;20287;-79
2023/09/20 07:30:51;;;;;;;2.35;1.80;;;23.90;51.20;;;;;;5055849;28;20377;-79
2023/09/20 07:33:23;;;;;;;1.98;1.70;;;24.00;50.90;;;;;;5057141;28;20200;-79
2023/09/20 07:35:58;;;;;;;2.42;1.70;;;24.20;50.90;;;;;;5055599;28;20261;-79
2023/09/20 07:38:28;;;;;;;1.98;1.70;;;24.30;50.60;;;;;;5056342;28;20219;-79
2023/09/20 07:41:12;;;;;;;1.70;1.60;;;24.40;50.30;;;;;;5056776;28;20234;-79
2023/09/20 07:43:41;;;;;;;2.42;1.88;;;24.50;50.30;;;;;;5056960;28;20290;-79
2023/09/20 07:46:09;;;;;;;4.07;1.58;;;24.40;50.10;;;;;;5056033;28;20218;-79
2023/09/20 07:48:37;;;;;;;1.55;1.45;;;24.40;50.30;;;;;;5056422;28;20223;-79
2023/09/20 07:51:10;;;;;;;1.95;1.75;;;24.30;50.40;;;;;;5056014;28;20201;-79
2023/09/20 07:53:39;;;;;;;1.80;1.70;;;24.30;50.60;;;;;;5039941;28;20203;-79
2023/09/20 07:56:11;;;;;;;1.55;1.40;;;24.30;50.50;;;;;;5055240;28;20258;-79
2023/09/20 07:58:40;;;;;;;3.45;1.90;;;24.40;50.50;;;;;;5055351;28;20670;-79
2023/09/20 08:01:16;;;;;;;2.42;1.60;;;24.50;50.30;;;;;;5055336;28;20195;-79
2023/09/20 08:03:50;;;;;;;1.92;1.63;;;24.60;50.00;;;;;;5057448;28;20278;-79
2023/09/20 08:06:18;;;;;;;1.92;1.70;;;24.70;49.60;;;;;;5055886;28;20594;-79
2023/09/20 08:08:46;;;;;;;1.70;1.60;;;24.90;49.40;;;;;;5056372;28;20670;-79
2023/09/20 08:11:13;;;;;;;3.00;1.92;;;25.10;49.00;;;;;;5056531;28;20260;-79
2023/09/20 08:13:40;;;;;;;1.77;1.55;;;25.20;49.30;;;;;;5056255;28;20245;-79
2023/09/20 08:16:12;;;;;;;1.90;1.70;;;25.40;48.50;;;;;;5056765;28;20211;-79
2023/09/20 08:21:25;;;;;;;1.88;1.52;;;25.60;48.00;;;;;;5056873;28;20194;-79
2023/09/20 08:59:51;;;;;;;1.88;1.67;;;26.10;47.40;;;;;;5054577;28;20215;-79
2023/09/20 09:02:19;;;;;;;1.88;1.40;;;26.20;47.30;;;;;;5055225;28;20202;-79
2023/09/20 09:04:46;;;;;;;2.13;1.80;;;26.20;47.20;;;;;;5055217;28;20649;-79
2023/09/20 09:07:13;;;;;;;1.70;1.60;;;26.30;47.10;;;;;;5055347;28;20219;-79
2023/09/20 09:09:41;;;;;;;1.85;1.73;;;26.30;47.00;;;;;;5055851;28;20191;-79
2023/09/20 09:12:11;;;;;;;1.80;1.70;;;26.40;47.00;;;;;;5055458;28;20202;-79
2023/09/20 09:14:38;;;;;;;1.95;1.63;;;26.40;46.90;;;;;;5055950;28;20266;-79
2023/09/20 09:17:06;;;;;;;2.28;1.52;;;26.40;46.80;;;;;;5057011;28;20211;-79
2023/09/20 09:19:33;;;;;;;2.75;1.75;;;26.50;46.80;;;;;;5055371;28;20215;-79
2023/09/20 09:22:00;;;;;;;2.13;1.65;;;26.50;46.70;;;;;;5056390;28;20293;-79
2023/09/20 09:24:28;;;;;;;1.88;1.73;;;26.50;46.60;;;;;;5055772;28;20568;-79
2023/09/20 09:27:08;;;;;;;2.45;1.60;;;26.50;46.60;;;;;;5056497;28;20219;-79
2023/09/20 09:29:41;;;;;;;1.55;1.45;;;26.60;47.30;;;;;;5040928;28;20551;-79
2023/09/20 09:32:08;;;;;;;1.83;1.33;;;26.60;46.60;;;;;;5056181;28;20187;-82
2023/09/20 09:34:36;;;;;;;1.83;1.65;;;26.60;46.70;;;;;;5056135;28;20220;-80
2023/09/20 09:37:03;;;;;;;1.60;1.50;;;26.60;46.60;;;;;;5062109;28;20588;-79
2023/09/20 09:39:30;;;;;;;1.88;1.50;;;26.60;46.60;;;;;;5062073;28;20661;-81
2023/09/20 09:42:00;;;;;;;1.70;1.60;;;26.60;46.70;;;;;;5057569;28;20612;-80
2023/09/20 09:44:27;;;;;;;1.45;1.35;;;26.60;46.70;;;;;;5057519;28;20199;-80
2023/09/20 09:46:56;;;;;;;1.70;1.60;;;26.60;46.70;;;;;;5039720;28;20228;-80
2023/09/20 09:49:24;;;;;;;1.73;1.63;;;26.60;46.70;;;;;;5057638;28;20550;-80
2023/09/20 09:51:52;;;;;;;1.50;1.40;;;26.60;46.70;;;;;;5055152;28;20214;-79
2023/09/20 09:54:20;;;;;;;1.60;1.50;;;26.60;46.70;;;;;;5038043;28;20191;-79
2023/09/20 09:56:48;;;;;;;1.75;1.65;;;26.60;46.70;;;;;;5053789;28;20229;-79
2023/09/20 09:59:15;;;;;;;1.83;1.52;;;26.60;46.70;;;;;;5053194;28;20627;-79
2023/09/20 10:01:44;;;;;;;1.70;1.58;;;26.60;46.70;;;;;;5053221;28;20226;-79
2023/09/20 10:04:13;;;;;;;1.52;1.30;;;26.60;46.70;;;;;;5052919;28;20213;-79
2023/09/20 10:06:50;;;;;;;1.60;1.50;;;26.60;46.80;;;;;;5056525;28;20281;-79
2023/09/20 10:09:20;;;;;;;1.63;1.52;;;26.60;46.80;;;;;;5063773;28;20244;-79
2023/09/20 10:11:47;;;;;;;2.63;1.80;;;26.60;46.80;;;;;;5065531;28;20191;-79
2023/09/20 10:14:15;;;;;;;1.58;1.45;;;26.60;46.80;;;;;;5062377;28;20201;-79
2023/09/20 10:16:43;;;;;;;1.90;1.60;;;26.60;46.90;;;;;;5055617;28;20688;-79
2023/09/20 10:19:14;;;;;;;1.90;1.70;;;26.60;46.90;;;;;;5057098;28;20223;-79
2023/09/20 10:22:08;;;;;;;1.50;1.35;;;26.50;46.90;;;;;;5056391;28;20225;-79
2023/09/20 10:24:45;;;;;;;1.65;1.42;;;26.50;47.00;;;;;;5052733;28;20212;-79
2023/09/20 10:27:15;;;;;;;1.70;1.50;;;26.50;47.00;;;;;;5056813;28;20309;-80
2023/09/20 10:29:43;;;;;;;1.63;1.52;;;26.50;47.00;;;;;;5056489;28;20241;-80
2023/09/20 10:32:14;;;;;;;1.48;1.38;;;26.40;47.00;;;;;;5055879;28;20222;-80
2023/09/20 10:34:43;;;;;;;1.40;1.30;;;26.40;47.10;;;;;;5056557;28;20218;-80
2023/09/20 10:37:10;;;;;;;1.45;1.35;;;26.40;47.90;;;;;;5055964;28;20649;-80
2023/09/20 10:39:38;;;;;;;1.60;1.50;;;26.40;47.50;;;;;;5040361;28;20218;-80
2023/09/20 10:42:12;;;;;;;1.52;1.42;;;26.40;47.50;;;;;;5061060;28;20199;-80
2023/09/20 10:44:41;;;;;;;1.77;1.45;;;26.40;47.50;;;;;;5059137;28;20567;-79
2023/09/20 10:47:09;;;;;;;1.63;1.52;;;26.40;47.60;;;;;;5059567;28;20214;-79
2023/09/20 10:49:56;;;;;;;1.40;1.30;;;26.30;47.60;;;;;;5059567;28;20195;-79
2023/09/20 10:52:53;;;;;;;1.70;1.50;;;26.30;47.70;;;;;;5059872;28;20691;-79
2023/09/20 10:55:36;;;;;;;1.40;1.30;;;26.30;47.70;;;;;;5058779;28;20240;-79
2023/09/20 10:58:04;;;;;;;1.60;1.50;;;26.30;47.90;;;;;;5056388;28;20199;-79
2023/09/20 11:00:34;;;;;;;1.60;1.50;;;26.30;47.90;;;;;;5056971;28;20206;-79
2023/09/20 11:03:05;;;;;;;1.63;1.40;;;26.30;47.90;;;;;;5057415;28;20221;-79
2023/09/20 11:05:33;;;;;;;1.65;1.55;;;26.30;48.00;;;;;;5057665;28;20226;-79
2023/09/20 11:08:07;;;;;;;1.40;1.30;;;26.20;48.20;;;;;;5057082;28;20195;-79
2023/09/20 11:10:35;;;;;;;1.50;1.40;;;26.20;48.30;;;;;;5057555;28;20202;-79
2023/09/20 11:13:06;;;;;;;1.40;1.30;;;26.10;48.50;;;;;;5025229;28;20202;-79
2023/09/20 11:15:40;;;;;;;1.55;1.45;;;26.10;48.80;;;;;;5057307;28;20222;-79
2023/09/20 11:18:07;;;;;;;1.25;1.20;;;26.00;48.80;;;;;;5058355;28;20626;-79
2023/09/20 11:20:35;;;;;;;1.50;1.40;;;26.00;48.90;;;;;;5059148;28;20195;-79
2023/09/20 11:23:03;;;;;;;1.65;1.55;;;26.00;49.00;;;;;;5058497;28;20671;-79
2023/09/20 11:25:30;;;;;;;1.58;1.48;;;25.90;49.10;;;;;;5057654;28;20265;-79
2023/09/20 11:27:58;;;;;;;1.40;1.30;;;25.90;49.20;;;;;;5057966;28;20214;-79
2023/09/20 11:30:27;;;;;;;1.50;1.40;;;25.90;49.30;;;;;;5057828;28;20191;-79
2023/09/20 11:32:54;;;;;;;1.35;1.10;;;25.90;49.40;;;;;;5057332;28;20199;-79
2023/09/20 11:35:32;;;;;;;1.40;1.30;;;25.90;49.40;;;;;;5057440;28;20272;-79
2023/09/20 11:38:00;;;;;;;1.25;1.15;;;25.90;49.50;;;;;;5057439;28;20195;-79
2023/09/20 11:40:27;;;;;;;1.35;1.25;;;26.00;49.60;;;;;;5058643;28;20610;-79
2023/09/20 11:42:54;;;;;;;1.33;1.23;;;25.90;49.60;;;;;;5057664;28;20661;-79
2023/09/20 11:45:25;;;;;;;1.30;1.20;;;25.90;49.70;;;;;;5056654;28;20241;-79
2023/09/20 11:47:52;;;;;;;1.55;1.45;;;25.90;49.70;;;;;;5057589;28;20191;-80
2023/09/20 11:50:20;;;;;;;1.60;1.50;;;25.90;49.70;;;;;;5056697;28;20199;-80
2023/09/20 11:52:48;;;;;;;1.50;1.40;;;25.90;49.70;;;;;;5056172;28;20202;-80
2023/09/20 11:55:17;;;;;;;1.27;1.17;;;26.00;49.80;;;;;;5055354;28;20215;-80
2023/09/20 11:57:45;;;;;;;1.50;1.40;;;26.00;49.90;;;;;;5055748;28;20195;-80
2023/09/20 12:00:16;;;;;;;1.58;1.48;;;26.00;50.00;;;;;;5056273;28;20301;-80
2023/09/20 12:02:43;;;;;;;1.73;1.20;;;26.00;50.60;;;;;;5039981;28;20209;-80
2023/09/20 12:05:10;;;;;;;1.40;1.30;;;26.00;50.00;;;;;;5039032;28;20217;-80
2023/09/20 12:07:37;;;;;;;1.40;1.30;;;26.00;50.10;;;;;;5055509;28;20190;-80
2023/09/20 12:10:06;;;;;;;1.50;1.40;;;26.00;50.10;;;;;;5038691;28;20187;-80
2023/09/20 12:12:35;;;;;;;1.35;1.17;;;26.00;50.30;;;;;;5055097;28;20665;-80
2023/09/20 12:15:06;;;;;;;1.48;1.38;;;26.00;50.30;;;;;;5057423;28;20206;-80
2023/09/20 12:17:33;;;;;;;1.40;1.30;;;26.00;50.30;;;;;;5057228;28;20206;-79
2023/09/20 12:20:00;;;;;;;1.50;1.40;;;26.00;50.30;;;;;;5057151;28;20211;-79
2023/09/20 12:22:27;;;;;;;1.20;1.20;;;26.00;50.30;;;;;;5056711;28;20417;-79
2023/09/20 12:24:54;;;;;;;1.33;1.20;;;26.00;50.30;;;;;;5055845;28;20246;-79
2023/09/20 12:27:23;;;;;;;1.13;1.10;;;26.00;50.30;;;;;;5039863;28;20195;-79
2023/09/20 12:29:51;;;;;;;1.77;1.35;;;26.00;50.30;;;;;;5055994;28;20194;-80
2023/09/20 12:32:18;;;;;;;1.35;1.25;;;26.00;50.40;;;;;;5056036;28;20199;-80
2023/09/20 12:34:45;;;;;;;1.40;1.30;;;26.00;50.50;;;;;;5057446;28;20191;-80
2023/09/20 12:37:13;;;;;;;1.80;1.30;;;26.00;50.60;;;;;;5057216;28;20210;-80
2023/09/20 12:39:41;;;;;;;1.58;1.48;;;26.00;50.70;;;;;;5055808;28;20685;-80
2023/09/20 12:42:09;;;;;;;1.40;1.30;;;26.00;50.70;;;;;;5055451;28;20202;-80
2023/09/20 12:44:37;;;;;;;1.40;1.30;;;25.90;50.70;;;;;;5039223;28;20210;-80
2023/09/20 12:47:07;;;;;;;1.52;1.42;;;25.90;50.80;;;;;;5039167;28;20629;-80
2023/09/20 12:49:36;;;;;;;1.40;1.30;;;25.90;50.90;;;;;;5040317;28;20277;-80
2023/09/20 12:52:03;;;;;;;2.67;1.27;;;25.90;51.00;;;;;;5054904;28;20201;-80
2023/09/20 12:54:30;;;;;;;1.55;1.45;;;25.90;51.20;;;;;;5054732;28;20194;-80
2023/09/20 12:56:57;;;;;;;2.30;1.48;;;25.90;51.20;;;;;;5054389;28;20223;-80
2023/09/20 12:59:26;;;;;;;1.45;1.33;;;25.90;51.30;;;;;;5054754;28;20218;-80
2023/09/20 13:01:54;;;;;;;2.40;1.20;;;25.80;51.10;;;;;;5055020;28;20213;-80
2023/09/20 13:04:24;;;;;;;2.25;1.38;;;25.90;51.00;;;;;;5054465;28;20238;-80
2023/09/20 13:06:51;;;;;;;1.52;1.23;;;25.80;50.60;;;;;;5055157;28;20254;-80
2023/09/20 13:09:21;;;;;;;4.60;1.60;;;25.80;50.50;;;;;;5055083;28;20195;-80
2023/09/20 13:11:48;;;;;;;1.70;1.60;;;25.80;50.30;;;;;;5056445;28;20213;-80
2023/09/20 13:14:19;;;;;;;1.50;1.40;;;25.80;50.20;;;;;;5042221;28;20210;-80
2023/09/20 13:16:49;;;;;;;4.60;1.60;;;25.80;50.20;;;;;;5060404;28;20590;-80
2023/09/20 13:19:16;;;;;;;2.25;1.30;;;25.80;50.00;;;;;;5044156;28;20203;-80
2023/09/20 13:21:44;;;;;;;1.77;1.40;;;25.80;49.90;;;;;;5057001;28;20199;-80
2023/09/20 13:24:11;;;;;;;2.25;1.40;;;25.70;49.90;;;;;;5058246;28;20187;-80
2023/09/20 13:26:39;;;;;;;1.70;1.60;;;25.70;49.90;;;;;;5057847;28;20214;-80
2023/09/20 13:29:07;;;;;;;2.65;1.50;;;25.70;49.70;;;;;;5056732;28;20202;-81
2023/09/20 13:31:35;;;;;;;1.50;1.40;;;25.70;50.10;;;;;;5057319;28;20202;-80
2023/09/20 13:34:03;;;;;;;1.58;1.38;;;25.60;49.60;;;;;;5056109;28;20290;-80